Portada
METAR-TAF:

METAR-TAF

Aeroports :

Zahedan, Iran

latitud: 29-28N, longitud: 060-53E, altitud: 1370 m

Observació

L'informe es va fer fa 13 minuts, a les 23:00 UTC
Vent 4 kt del Sud/Sud-Est
Temperatura 0°C
Humitat 93%
Pressió 1026 hPa
Visibilitat 10 km o més
sense núvols per sota de 1500 mi sense presència de cumulonimbus.

METAR: OIZH 222300Z 15004KT CAVOK M00/M01 Q1025 A3029

Hora: 02:43 (23:13 UTC)

Pronòstic

L'informe es va fer fa 5 hores i 43 minuts, a les 17:30 UTC
Pronòstic vàlid del 22 a les 18 UTC al 23 a les 24 UTC
Vent 8 kt del Est
Visibilitat: 8000 m
Escasses núvols a una alçada de 3000 ft
Temporalment
l' 23 a les 10 UTC al 23 a les 14 UTC
Escasses núvols a una alçada de 3500 ft, Cumulonimbus.
Núvols disperses a una alçada de 4000 ft
Núvols disperses a una alçada de 9000 ft

TAF: OIZH 221730Z 2218/2324 08008KT 8000 FEW030 TEMPO 2310/2314 FEW035CB SCT040 SCT090

Observacions i pronòstics meteorològics de més de 4000 aeroports (METAR i TAF).

Les estacions disponibles són els punts grocs i vermells al mapa.

Posi el ratolí al punt desitjat per veure el nom de l'estació.

Feu clic per veure les observacions i els pronòstics meteorològics.

Per canviar el mapa: feu clic els botons verds amb una creu de color negre per apropar; al botó verd amb un guió per allunyar la imatge; o en les fletxes verdes per a mapes adjacents.


METAR-TAF: